createdAt,value
2023-08-11T00:00:09.777Z,11.08
2023-08-11T00:02:39.217Z,11.08
2023-08-11T00:05:07.305Z,11.20
2023-08-11T00:07:34.549Z,11.31
2023-08-11T00:10:01.827Z,11.25
2023-08-11T00:12:28.861Z,11.21
2023-08-11T00:14:55.959Z,11.05
2023-08-11T00:17:22.961Z,11.07
2023-08-11T00:19:49.846Z,11.15
2023-08-11T00:22:16.625Z,11.20
2023-08-11T00:24:43.557Z,11.31
2023-08-11T00:27:10.745Z,11.50
2023-08-11T00:29:37.737Z,11.67
2023-08-11T00:32:05.152Z,11.88
2023-08-11T00:34:32.299Z,12.06
2023-08-11T00:36:59.179Z,12.32
2023-08-11T00:39:26.148Z,12.51
2023-08-11T00:41:52.972Z,12.44
2023-08-11T00:44:19.893Z,12.40
2023-08-11T00:46:47.351Z,12.44
2023-08-11T00:49:15.417Z,12.56
2023-08-11T00:51:43.297Z,12.60
2023-08-11T00:54:12.090Z,12.72
2023-08-11T00:56:45.430Z,12.84
2023-08-11T00:59:22.849Z,12.95
2023-08-11T01:01:50.257Z,12.99
2023-08-11T01:04:17.318Z,13.08
2023-08-11T01:06:48.137Z,13.10
2023-08-11T01:09:39.593Z,13.17
2023-08-11T01:12:24.892Z,13.26
2023-08-11T01:15:11.680Z,13.45
2023-08-11T01:17:42.273Z,13.61
2023-08-11T01:20:17.296Z,13.56
2023-08-11T01:22:55.289Z,13.47
2023-08-11T01:25:22.496Z,13.74
2023-08-11T01:28:05.274Z,13.89
2023-08-11T01:30:35.775Z,13.87
2023-08-11T01:33:02.692Z,13.76
2023-08-11T01:35:40.468Z,13.89
2023-08-11T01:38:10.689Z,13.87
2023-08-11T01:40:39.515Z,13.79
2023-08-11T01:43:08.819Z,13.88
2023-08-11T01:45:35.655Z,14.09
2023-08-11T01:48:03.890Z,14.24
2023-08-11T01:50:31.834Z,14.24
2023-08-11T01:52:58.936Z,14.22
2023-08-11T01:55:27.666Z,14.25
2023-08-11T01:57:59.060Z,14.30
2023-08-11T02:00:28.760Z,14.27
2023-08-11T02:02:57.804Z,14.31
2023-08-11T02:05:26.511Z,14.42
2023-08-11T02:07:54.839Z,14.41
2023-08-11T02:10:21.993Z,14.41
2023-08-11T02:12:49.472Z,14.51
2023-08-11T02:15:16.448Z,14.62
2023-08-11T02:17:43.766Z,14.67
2023-08-11T02:20:22.277Z,14.77
2023-08-11T02:22:50.458Z,14.82
2023-08-11T02:25:17.484Z,14.84
2023-08-11T02:27:45.219Z,14.85
2023-08-11T02:30:13.472Z,14.97
2023-08-11T02:32:42.591Z,14.98
2023-08-11T02:35:11.910Z,14.99
2023-08-11T02:37:39.024Z,15.05
2023-08-11T02:40:10.475Z,14.99
2023-08-11T02:42:46.872Z,14.95
2023-08-11T02:45:13.665Z,14.99
2023-08-11T02:47:40.879Z,15.11
2023-08-11T02:50:09.844Z,15.13
2023-08-11T02:52:37.654Z,15.17
2023-08-11T02:55:06.540Z,15.25
2023-08-11T02:57:34.307Z,15.13
2023-08-11T03:00:01.883Z,15.17
2023-08-11T03:02:28.997Z,15.16
2023-08-11T03:04:55.897Z,15.08
2023-08-11T03:07:22.737Z,15.13
2023-08-11T03:09:49.677Z,15.17
2023-08-11T03:12:16.800Z,15.21
2023-08-11T03:14:43.675Z,15.36
2023-08-11T03:17:11.651Z,15.32
2023-08-11T03:19:38.695Z,15.37
2023-08-11T03:22:05.783Z,15.31
2023-08-11T03:24:33.021Z,15.24
2023-08-11T03:27:00.020Z,15.16
2023-08-11T03:29:26.930Z,15.14
2023-08-11T03:31:54.132Z,15.24
2023-08-11T03:34:21.054Z,15.29
2023-08-11T03:36:47.820Z,15.26
2023-08-11T03:39:14.657Z,15.19
2023-08-11T03:41:41.420Z,15.25
2023-08-11T03:44:08.313Z,15.27
2023-08-11T03:46:35.679Z,15.29
2023-08-11T03:49:04.723Z,15.43
2023-08-11T03:51:31.617Z,15.46
2023-08-11T03:54:01.957Z,15.32
2023-08-11T03:56:29.904Z,15.32
2023-08-11T03:58:57.013Z,15.45
2023-08-11T04:01:24.086Z,15.50
2023-08-11T04:03:51.108Z,15.52
2023-08-11T04:06:17.849Z,15.55
2023-08-11T04:08:45.431Z,15.59
2023-08-11T04:11:12.672Z,15.61
2023-08-11T04:13:39.456Z,15.58
2023-08-11T04:16:06.308Z,15.45
2023-08-11T04:18:33.211Z,15.53
2023-08-11T04:21:00.215Z,15.49
2023-08-11T04:23:27.196Z,15.55
2023-08-11T04:25:54.265Z,15.68
2023-08-11T04:28:21.125Z,15.71
2023-08-11T04:30:47.903Z,15.81
2023-08-11T04:33:14.820Z,15.74
2023-08-11T04:35:41.849Z,15.84
2023-08-11T04:38:08.990Z,15.98
2023-08-11T04:40:35.812Z,16.00
2023-08-11T04:43:03.142Z,16.01
2023-08-11T04:45:30.112Z,16.08
2023-08-11T04:47:57.137Z,16.06
2023-08-11T04:50:24.355Z,16.08
2023-08-11T04:52:51.438Z,16.34
2023-08-11T04:55:18.854Z,16.46
2023-08-11T04:57:45.675Z,16.48
2023-08-11T05:00:17.650Z,16.44
2023-08-11T05:02:45.715Z,16.26
2023-08-11T05:05:13.084Z,16.58
2023-08-11T05:07:41.461Z,16.53
2023-08-11T05:10:09.014Z,16.50
2023-08-11T05:12:36.124Z,16.64
2023-08-11T05:15:04.883Z,16.68
2023-08-11T05:17:32.785Z,16.74
2023-08-11T05:19:59.964Z,16.81
2023-08-11T05:22:27.065Z,16.88
2023-08-11T05:24:54.144Z,16.94
2023-08-11T05:27:21.186Z,16.93
2023-08-11T05:29:49.497Z,16.90
2023-08-11T05:32:16.763Z,16.87
2023-08-11T05:34:43.817Z,16.98
2023-08-11T05:37:11.351Z,16.89
2023-08-11T05:39:42.100Z,16.95
2023-08-11T05:42:09.182Z,17.01
2023-08-11T05:44:36.556Z,16.98
2023-08-11T05:47:03.987Z,17.14
2023-08-11T05:49:30.832Z,16.97
2023-08-11T05:51:57.822Z,17.07
2023-08-11T05:54:24.750Z,17.05
2023-08-11T05:56:54.318Z,17.04
2023-08-11T05:59:24.810Z,17.21
2023-08-11T06:01:52.111Z,17.07
2023-08-11T06:04:19.148Z,17.35
2023-08-11T06:06:46.012Z,17.38
2023-08-11T06:09:12.887Z,17.34
2023-08-11T06:11:39.791Z,17.38
2023-08-11T06:14:06.643Z,17.44
2023-08-11T06:16:33.603Z,17.48
2023-08-11T06:19:00.400Z,17.76
2023-08-11T06:21:27.432Z,17.68
2023-08-11T06:23:54.732Z,17.79
2023-08-11T06:26:22.014Z,17.96
2023-08-11T06:28:49.869Z,18.15
2023-08-11T06:31:20.302Z,18.18
2023-08-11T06:33:47.738Z,18.17
2023-08-11T06:36:14.479Z,18.19
2023-08-11T06:38:42.089Z,18.27
2023-08-11T06:41:09.104Z,18.65
2023-08-11T06:43:35.887Z,18.82
2023-08-11T06:46:02.906Z,18.63
2023-08-11T06:48:29.804Z,18.77
2023-08-11T06:50:59.552Z,18.71
2023-08-11T06:53:26.525Z,19.00
2023-08-11T06:55:53.786Z,19.37
2023-08-11T06:58:22.169Z,19.17
2023-08-11T07:00:50.324Z,18.97
2023-08-11T07:03:17.354Z,19.31
2023-08-11T07:05:44.253Z,18.97
2023-08-11T07:08:11.277Z,18.84
2023-08-11T07:10:38.126Z,19.15
2023-08-11T07:13:04.865Z,19.07
2023-08-11T07:15:31.862Z,19.08
2023-08-11T07:17:58.791Z,19.11
2023-08-11T07:20:25.755Z,18.93
2023-08-11T07:22:52.953Z,19.15
2023-08-11T07:25:19.931Z,19.30
2023-08-11T07:27:46.765Z,19.23
2023-08-11T07:30:13.659Z,19.32
2023-08-11T07:32:40.582Z,19.38
2023-08-11T07:35:07.895Z,19.71
2023-08-11T07:37:34.924Z,19.51
2023-08-11T07:40:01.934Z,19.76
2023-08-11T07:42:28.655Z,19.60
2023-08-11T07:44:55.529Z,19.60
2023-08-11T07:47:22.565Z,19.84
2023-08-11T07:49:52.365Z,19.92
2023-08-11T07:52:19.250Z,20.04
2023-08-11T07:54:46.262Z,20.27
2023-08-11T07:57:13.192Z,20.66
2023-08-11T07:59:40.160Z,20.70
2023-08-11T08:02:08.791Z,20.75
2023-08-11T08:04:35.580Z,21.00
2023-08-11T08:07:02.638Z,20.66
2023-08-11T08:09:30.088Z,20.87
2023-08-11T08:11:56.907Z,21.01
2023-08-11T08:14:23.676Z,21.08
2023-08-11T08:16:50.516Z,21.45
2023-08-11T08:19:18.362Z,21.49
2023-08-11T08:21:45.343Z,21.63
2023-08-11T08:24:12.687Z,21.78
2023-08-11T08:26:39.559Z,22.22
2023-08-11T08:29:06.560Z,22.20
2023-08-11T08:31:33.919Z,22.55
2023-08-11T08:34:01.348Z,22.87
2023-08-11T08:36:28.494Z,22.31
2023-08-11T08:38:55.445Z,22.41
2023-08-11T08:41:29.238Z,22.77
2023-08-11T08:43:57.333Z,22.97
2023-08-11T08:46:29.906Z,23.59
2023-08-11T08:49:31.161Z,23.77
2023-08-11T08:51:58.704Z,24.14
2023-08-11T08:54:25.729Z,24.04
2023-08-11T08:56:53.717Z,24.28
2023-08-11T08:59:21.116Z,24.59
2023-08-11T09:01:48.561Z,24.46
2023-08-11T09:04:17.051Z,24.85
2023-08-11T09:06:45.327Z,25.36
2023-08-11T09:09:14.129Z,25.68
2023-08-11T09:11:40.959Z,25.89
2023-08-11T09:14:09.101Z,26.04
2023-08-11T09:16:39.847Z,25.96
2023-08-11T09:19:11.511Z,26.42
2023-08-11T09:21:39.057Z,26.11
2023-08-11T09:24:10.494Z,26.04
2023-08-11T09:26:37.347Z,26.05
2023-08-11T09:29:05.536Z,25.92
2023-08-11T09:31:32.415Z,25.85
2023-08-11T09:34:15.904Z,25.99
2023-08-11T09:36:46.465Z,26.53
2023-08-11T09:39:13.549Z,26.23
2023-08-11T09:41:42.342Z,26.95
2023-08-11T09:44:10.092Z,27.73
2023-08-11T09:46:38.883Z,28.21
2023-08-11T09:49:07.200Z,28.27
2023-08-11T09:51:39.870Z,28.15
2023-08-11T09:54:09.486Z,28.69
2023-08-11T09:56:42.001Z,27.88
2023-08-11T09:59:19.550Z,28.09
2023-08-11T10:01:47.596Z,27.99
2023-08-11T10:04:22.503Z,29.16
2023-08-11T10:06:52.960Z,30.43
2023-08-11T10:09:23.812Z,31.32
2023-08-11T10:11:52.503Z,32.65
2023-08-11T10:14:22.429Z,34.31
2023-08-11T10:16:49.378Z,36.86
2023-08-11T10:19:16.616Z,36.39
2023-08-11T10:21:43.693Z,37.85
2023-08-11T10:24:11.705Z,38.28
2023-08-11T10:26:39.183Z,38.31
2023-08-11T10:29:06.217Z,38.98
2023-08-11T10:31:34.454Z,39.04
2023-08-11T10:34:07.368Z,39.18
2023-08-11T10:36:34.752Z,37.74
2023-08-11T10:39:07.014Z,36.77
2023-08-11T10:41:35.147Z,37.18
2023-08-11T10:44:02.001Z,37.97
2023-08-11T10:46:33.214Z,39.31
2023-08-11T10:49:07.481Z,38.45
2023-08-11T10:51:35.317Z,37.18
2023-08-11T10:54:19.201Z,35.90
2023-08-11T10:56:47.074Z,34.33
2023-08-11T10:59:25.636Z,32.72
2023-08-11T11:01:56.809Z,31.13
2023-08-11T11:04:33.558Z,29.87
2023-08-11T11:07:02.159Z,29.20
2023-08-11T11:09:29.767Z,28.70
2023-08-11T11:11:57.937Z,28.68
2023-08-11T11:14:28.454Z,29.48
2023-08-11T11:17:00.301Z,30.61
2023-08-11T11:19:27.854Z,32.42
2023-08-11T11:21:54.869Z,34.73
2023-08-11T11:24:21.741Z,38.13
2023-08-11T11:26:49.277Z,37.84
2023-08-11T11:29:16.290Z,36.53
2023-08-11T11:31:43.598Z,35.57
2023-08-11T11:34:10.702Z,36.46
2023-08-11T11:36:38.363Z,36.48
2023-08-11T11:39:06.290Z,36.69
2023-08-11T11:41:33.424Z,35.91
2023-08-11T11:44:00.648Z,35.41
2023-08-11T11:46:29.997Z,35.51
2023-08-11T11:48:57.401Z,34.17
2023-08-11T11:51:26.866Z,33.30
2023-08-11T11:53:56.328Z,32.82
2023-08-11T11:56:23.517Z,34.37
2023-08-11T11:58:51.105Z,34.96
2023-08-11T12:01:22.706Z,34.54
2023-08-11T12:03:51.840Z,31.54
2023-08-11T12:06:20.384Z,31.48
2023-08-11T12:08:50.585Z,31.50
2023-08-11T12:11:26.967Z,33.62
2023-08-11T12:13:54.170Z,33.37
2023-08-11T12:16:21.476Z,34.65
2023-08-11T12:18:48.914Z,35.86
2023-08-11T12:21:18.659Z,36.05
2023-08-11T12:23:45.607Z,34.81
2023-08-11T12:26:12.537Z,30.92
2023-08-11T12:28:40.656Z,31.12
2023-08-11T12:31:09.851Z,30.73
2023-08-11T12:33:39.807Z,30.69
2023-08-11T12:36:06.939Z,31.03
2023-08-11T12:38:34.746Z,30.85
2023-08-11T12:41:01.552Z,30.13
2023-08-11T12:43:28.384Z,29.47
2023-08-11T12:45:55.293Z,28.79
2023-08-11T12:48:22.544Z,27.93
2023-08-11T12:50:49.570Z,27.68
2023-08-11T12:53:16.342Z,27.54
2023-08-11T12:55:43.299Z,27.92
2023-08-11T12:58:10.220Z,27.87
2023-08-11T13:00:37.627Z,28.15
2023-08-11T13:03:05.453Z,27.75
2023-08-11T13:05:32.397Z,27.73
2023-08-11T13:07:59.455Z,28.08
2023-08-11T13:10:26.690Z,28.75
2023-08-11T13:12:53.610Z,28.53
2023-08-11T13:15:21.138Z,28.09
2023-08-11T13:17:48.133Z,28.20
2023-08-11T13:20:15.067Z,28.09
2023-08-11T13:22:42.528Z,28.19
2023-08-11T13:25:10.244Z,28.63
2023-08-11T13:27:38.461Z,28.55
2023-08-11T13:30:09.378Z,28.70
2023-08-11T13:32:36.738Z,28.72
2023-08-11T13:35:04.392Z,28.53
2023-08-11T13:37:31.165Z,28.32
2023-08-11T13:40:01.666Z,28.28
2023-08-11T13:42:29.048Z,28.24
2023-08-11T13:44:55.950Z,27.94
2023-08-11T13:47:23.081Z,28.05
2023-08-11T13:49:49.855Z,27.83
2023-08-11T13:52:17.021Z,27.70
2023-08-11T13:54:59.730Z,27.81
2023-08-11T13:57:27.108Z,27.84
2023-08-11T13:59:58.839Z,27.90
2023-08-11T14:02:28.014Z,28.11
2023-08-11T14:04:55.889Z,28.25
2023-08-11T14:07:31.723Z,28.46
2023-08-11T14:10:01.615Z,28.45
2023-08-11T14:12:28.639Z,28.72
2023-08-11T14:14:55.621Z,28.73
2023-08-11T14:17:22.560Z,28.75
2023-08-11T14:19:49.698Z,28.48
2023-08-11T14:22:16.588Z,28.70
2023-08-11T14:24:43.578Z,28.36
2023-08-11T14:27:10.526Z,28.27
2023-08-11T14:29:37.517Z,28.23
2023-08-11T14:32:18.848Z,28.21
2023-08-11T14:34:51.504Z,28.31
2023-08-11T14:37:18.614Z,28.03
2023-08-11T14:39:46.624Z,27.72
2023-08-11T14:42:15.250Z,28.06
2023-08-11T14:44:42.893Z,28.00
2023-08-11T14:47:14.967Z,28.03
2023-08-11T14:49:45.771Z,28.04
2023-08-11T14:52:14.484Z,28.02
2023-08-11T14:54:41.866Z,28.40
2023-08-11T14:57:11.305Z,28.42
2023-08-11T14:59:39.510Z,28.33
2023-08-11T15:02:06.396Z,28.49
2023-08-11T15:04:33.295Z,28.19
2023-08-11T15:07:00.293Z,28.17
2023-08-11T15:09:28.139Z,28.30
2023-08-11T15:11:54.945Z,28.26
2023-08-11T15:14:21.867Z,28.29
2023-08-11T15:16:48.724Z,28.34
2023-08-11T15:19:16.156Z,28.17
2023-08-11T15:21:43.380Z,28.10
2023-08-11T15:24:10.271Z,28.06
2023-08-11T15:26:39.465Z,28.12
2023-08-11T15:29:06.757Z,27.89
2023-08-11T15:31:33.735Z,27.84
2023-08-11T15:34:00.835Z,27.95
2023-08-11T15:36:27.763Z,27.93
2023-08-11T15:38:54.569Z,27.82
2023-08-11T15:41:21.394Z,27.75
2023-08-11T15:43:48.503Z,27.90
2023-08-11T15:46:15.596Z,27.92
2023-08-11T15:48:42.562Z,27.72
2023-08-11T15:51:09.659Z,27.68
2023-08-11T15:53:36.682Z,27.85
2023-08-11T15:56:04.419Z,27.79
2023-08-11T15:58:31.437Z,27.97
2023-08-11T16:00:59.460Z,27.92
2023-08-11T16:03:27.111Z,28.20
2023-08-11T16:05:54.387Z,28.14
2023-08-11T16:08:22.693Z,28.00
2023-08-11T16:10:49.635Z,27.65
2023-08-11T16:13:16.786Z,27.59
2023-08-11T16:15:43.801Z,27.54
2023-08-11T16:18:11.761Z,27.65
2023-08-11T16:20:38.898Z,27.55
2023-08-11T16:23:05.955Z,27.61
2023-08-11T16:25:33.067Z,27.59
2023-08-11T16:28:00.941Z,27.68
2023-08-11T16:30:27.969Z,27.32
2023-08-11T16:32:56.278Z,27.38
2023-08-11T16:35:23.921Z,27.35
2023-08-11T16:37:51.185Z,27.40
2023-08-11T16:40:18.295Z,27.15
2023-08-11T16:42:45.192Z,27.12
2023-08-11T16:45:12.075Z,26.97
2023-08-11T16:47:39.056Z,27.04
2023-08-11T16:50:06.568Z,26.91
2023-08-11T16:52:33.328Z,27.01
2023-08-11T16:55:00.321Z,27.00
2023-08-11T16:57:27.233Z,26.92
2023-08-11T16:59:54.603Z,26.96
2023-08-11T17:02:21.519Z,27.05
2023-08-11T17:04:48.854Z,26.86
2023-08-11T17:07:15.776Z,26.74
2023-08-11T17:09:42.660Z,26.75
2023-08-11T17:12:10.933Z,26.70
2023-08-11T17:14:38.208Z,26.49
2023-08-11T17:17:05.141Z,26.47
2023-08-11T17:19:32.973Z,26.37
2023-08-11T17:21:59.964Z,26.38
2023-08-11T17:24:26.895Z,26.34
2023-08-11T17:26:53.879Z,26.54
2023-08-11T17:29:20.974Z,26.53
2023-08-11T17:31:48.039Z,26.40
2023-08-11T17:34:15.034Z,26.31
2023-08-11T17:36:41.917Z,26.31
2023-08-11T17:39:08.790Z,26.27
2023-08-11T17:41:35.740Z,26.35
2023-08-11T17:44:02.617Z,26.33
2023-08-11T17:46:29.687Z,26.25
2023-08-11T17:48:56.908Z,26.08
2023-08-11T17:51:25.323Z,26.01
2023-08-11T17:54:03.706Z,25.90
2023-08-11T17:56:37.208Z,25.74
2023-08-11T17:59:04.283Z,25.57
2023-08-11T18:01:32.984Z,25.34
2023-08-11T18:04:05.052Z,25.27
2023-08-11T18:06:34.850Z,25.11
2023-08-11T18:09:02.173Z,24.87
2023-08-11T18:11:29.624Z,24.81
2023-08-11T18:13:57.291Z,24.49
2023-08-11T18:16:24.635Z,24.41
2023-08-11T18:18:51.448Z,24.15
2023-08-11T18:21:20.856Z,23.92
2023-08-11T18:23:48.665Z,23.90
2023-08-11T18:26:17.385Z,23.85
2023-08-11T18:28:44.472Z,23.71
2023-08-11T18:31:11.488Z,23.62
2023-08-11T18:33:38.597Z,23.53
2023-08-11T18:36:05.667Z,23.46
2023-08-11T18:38:32.524Z,23.34
2023-08-11T18:40:59.442Z,23.23
2023-08-11T18:43:27.957Z,23.10
2023-08-11T18:45:54.879Z,23.09
2023-08-11T18:48:22.193Z,22.88
2023-08-11T18:50:49.377Z,22.76
2023-08-11T18:53:16.480Z,22.65
2023-08-11T18:55:43.792Z,22.44
2023-08-11T18:58:10.792Z,22.37
2023-08-11T19:00:39.498Z,22.32
2023-08-11T19:03:06.510Z,22.18
2023-08-11T19:05:35.263Z,22.16
2023-08-11T19:08:03.357Z,22.03
2023-08-11T19:10:30.292Z,21.92
2023-08-11T19:12:57.508Z,21.96
2023-08-11T19:15:24.409Z,21.92
2023-08-11T19:17:51.307Z,21.91
2023-08-11T19:20:18.551Z,21.88
2023-08-11T19:22:45.506Z,21.82
2023-08-11T19:25:12.889Z,21.75
2023-08-11T19:27:40.117Z,21.70
2023-08-11T19:30:08.182Z,21.68
2023-08-11T19:32:36.228Z,21.55
2023-08-11T19:35:03.692Z,21.50
2023-08-11T19:37:30.842Z,21.41
2023-08-11T19:39:57.844Z,21.44
2023-08-11T19:42:24.880Z,21.42
2023-08-11T19:44:51.925Z,21.44
2023-08-11T19:47:18.953Z,21.40
2023-08-11T19:49:45.999Z,21.31
2023-08-11T19:52:13.438Z,20.97
2023-08-11T19:54:40.703Z,21.18
2023-08-11T19:57:07.702Z,21.16
2023-08-11T19:59:35.029Z,21.17
2023-08-11T20:02:01.959Z,21.07
2023-08-11T20:04:28.856Z,21.08
2023-08-11T20:06:56.185Z,21.02
2023-08-11T20:09:25.773Z,20.94
2023-08-11T20:11:53.029Z,20.81
2023-08-11T20:14:20.125Z,20.85
2023-08-11T20:16:47.684Z,20.84
2023-08-11T20:19:14.435Z,20.82
2023-08-11T20:21:42.797Z,20.86
2023-08-11T20:24:10.962Z,20.87
2023-08-11T20:26:37.848Z,20.80
2023-08-11T20:29:05.163Z,20.77
2023-08-11T20:31:34.317Z,20.69
2023-08-11T20:34:01.568Z,20.71
2023-08-11T20:36:28.858Z,20.67
2023-08-11T20:38:56.256Z,20.67
2023-08-11T20:41:23.206Z,20.62
2023-08-11T20:43:50.325Z,20.43
2023-08-11T20:46:17.457Z,20.46
2023-08-11T20:48:44.503Z,20.35
2023-08-11T20:51:13.088Z,20.33
2023-08-11T20:53:40.225Z,20.27
2023-08-11T20:56:09.366Z,20.21
2023-08-11T20:58:36.877Z,20.19
2023-08-11T21:01:04.166Z,20.09
2023-08-11T21:03:31.314Z,19.97
2023-08-11T21:05:58.378Z,19.89
2023-08-11T21:08:25.272Z,19.83
2023-08-11T21:10:52.458Z,19.76
2023-08-11T21:13:19.351Z,19.69
2023-08-11T21:15:46.244Z,19.64
2023-08-11T21:18:13.513Z,19.61
2023-08-11T21:20:40.469Z,19.50
2023-08-11T21:23:07.889Z,19.49
2023-08-11T21:25:35.598Z,19.53
2023-08-11T21:28:02.589Z,19.43
2023-08-11T21:30:29.516Z,19.35
2023-08-11T21:32:56.906Z,19.29
2023-08-11T21:35:23.962Z,19.30
2023-08-11T21:37:50.710Z,19.31
2023-08-11T21:40:18.090Z,19.22
2023-08-11T21:42:46.072Z,19.07
2023-08-11T21:45:13.022Z,19.03
2023-08-11T21:47:40.084Z,18.95
2023-08-11T21:50:08.436Z,18.90
2023-08-11T21:52:35.701Z,18.84
2023-08-11T21:55:04.491Z,18.74
2023-08-11T21:57:32.653Z,18.77
2023-08-11T22:00:00.622Z,18.70
2023-08-11T22:02:27.781Z,18.71
2023-08-11T22:04:54.788Z,18.75
2023-08-11T22:07:21.688Z,18.75
2023-08-11T22:09:48.565Z,18.74
2023-08-11T22:12:15.490Z,18.73
2023-08-11T22:14:42.574Z,18.79
2023-08-11T22:17:11.499Z,18.78
2023-08-11T22:19:41.154Z,18.78
2023-08-11T22:22:08.711Z,18.76
2023-08-11T22:24:41.054Z,18.82
2023-08-11T22:27:12.242Z,18.84
2023-08-11T22:29:39.679Z,18.91
2023-08-11T22:32:06.748Z,18.84
2023-08-11T22:34:33.828Z,18.90
2023-08-11T22:37:00.761Z,19.04
2023-08-11T22:39:27.826Z,19.19
2023-08-11T22:41:54.847Z,19.24
2023-08-11T22:44:21.774Z,19.24
2023-08-11T22:46:48.601Z,19.37
2023-08-11T22:49:15.622Z,19.57
2023-08-11T22:51:42.717Z,19.60
2023-08-11T22:54:09.885Z,19.68
2023-08-11T22:56:36.665Z,19.74
2023-08-11T22:59:04.001Z,19.85
2023-08-11T23:01:31.057Z,19.84
2023-08-11T23:03:58.036Z,19.78
2023-08-11T23:06:25.389Z,19.84
2023-08-11T23:08:52.716Z,19.85
2023-08-11T23:11:19.564Z,19.87
2023-08-11T23:13:46.854Z,19.81
2023-08-11T23:16:14.160Z,19.84
2023-08-11T23:18:41.186Z,19.81
2023-08-11T23:21:08.123Z,19.77
2023-08-11T23:23:35.124Z,19.77
2023-08-11T23:26:02.007Z,19.74
2023-08-11T23:28:29.542Z,19.71
2023-08-11T23:30:56.593Z,19.66
2023-08-11T23:33:23.643Z,19.72
2023-08-11T23:35:50.610Z,19.69
2023-08-11T23:38:17.359Z,19.70
2023-08-11T23:40:44.458Z,19.70
2023-08-11T23:43:11.552Z,19.71
2023-08-11T23:45:38.549Z,19.76
2023-08-11T23:48:07.415Z,19.71
2023-08-11T23:50:34.865Z,19.70
2023-08-11T23:53:02.240Z,19.82
2023-08-11T23:55:29.328Z,19.76
2023-08-11T23:57:56.553Z,19.74
